Volk Field, WI

10:41 PM CST on February 21, 2017 (GMT -0600)
Volk | | Change Station
Active Advisory: Flood Warning

Elev 909 ft 43.93 °N, 90.27 °W | Updated 43 minutes ago

Clear
Clear
48 °F
Feels Like 48 °F
N
0
Wind Variable Wind from North

Today
High -- | Low -- °F
--% Chance of Precip.
Yesterday
High -- | Low -- °F
Precip. -- in
Pressure 29.80 in
Visibility 10.0 miles
Clouds Clear
Dew Point 35 °F
Humidity 62%
Rainfall 0.00 in
Snow Depth Not available.
6:50 AM 5:39 PM
Waning Crescent, 20% visible
METAR KVOK 220358Z AUTO 00000KT 10SM CLR 09/02 A2978 RMK AO2 SLP091 T00860016
Pressure 29.80 in
Visibility 10.0 miles
Clouds Clear
Dew Point 35 °F
Humidity 62%
Rainfall 0.00 in
Snow Depth Not available.
6:50 AM 5:39 PM
Waning Crescent, 20% visible
METAR KVOK 220358Z AUTO 00000KT 10SM CLR 09/02 A2978 RMK AO2 SLP091 T00860016

Get Your Daily Forecast Email!

Thanks for signing up!

Be on the lookout for a verification email in your inbox.

You'll start receiving the daily forecast at 8 AM.

×

10-Day Weather Forecast

Almanac

Astronomy

Feb. 21, 2017 Rise Set
Actual Time
Civil Twilight
Nautical Twilight
Astronomical Twilight
Moon
Length of Visible Light
Length of Day
Tomorrow will be .
, % of the Moon is Illuminated

Today's Extremes

State Highs State Lows

Community

WunderPhotos

Upload Photos

1,962,540 photos uploaded!

WunderBlog® & News

Nearby

Air Quality

  Air Quality AQ Index Pollutant
Not available.

Snow Depth

Station Depth Elevation

Earthquake Activity

City Distance Mag. Time & Date
Minimum magnitude displayed is 2.5.

Coastal Water Temperatures

Place Temperature

Stations

Nearby Weather Stations

Station Location Temp. Windchill Dew Point Humidity Wind Precip. Elev Updated Type
                   

Watches & Warnings

Flood Warning
Issued: 9:05 PM CST Feb. 21, 2017 – National Weather Service

The Flood Warning continues for
the Yellow River at Necedah.
* From late Wednesday night to Tuesday February 28... or until the
warning is cancelled.
* At 7:30 PM Tuesday the stage was 11.2 feet.
* Flood stage is 15.0 feet.
* Moderate flooding is forecast.
* Forecast... rise above flood stage by Thursday morning and continue
to rise to near 17.1 feet by Friday morning. The river is expected
to fall below flood stage Monday.


Lat... Lon 4415 9009 4415 9014 4395 9006 4396 9003


Hollan